Hlavní strana
METAR-TAF:

METAR-TAF

Letiště :

Ingolstadt, Německo

zeměpisná šířka: 48-43N, zeměpisná délka: 011-32E, výška: 367 m

Aktuální stav počasí

Zpráva byla vytvořena před 28 minutami, v 07:20 UTC
Západojihozápadní vítr 3 kt
Teplota 24°C
Vlhkost vzduchu 61%
Tlak 1014 hPa
Viditelnost 10 km a více
Skoro jasno ve výšce 8000 ft
Polojasno ve výšce 32000 ft

METAR: ETSI 190720Z 24003KT 9999 FEW080 SCT320 24/16 Q1014 BLU+BLU+

Čas: 09:48 (07:48 UTC)

Předpověď počasí

Zpráva byla vytvořena před 3 hodinami a 38 minutami, v 04:10 UTC
Předpověď platná od 19 v 05 UTC do 19 v 14 UTC
Západní vítr 5 kt
Viditelnost 10 km a více
Skoro jasno ve výšce 10000 ft

TAF: ETSI 190410Z 1905/1914 26005KT 9999 NSW FEW100

Stav a předpovědi počasí z více než 4 000 letišť (zprávy METAR a TAF).

Červené a žluté tečky na mapě představují dostupné meteorologické stanice.

Když kurzor umístíte na tečku, zobrazí se název stanice.

Pak kliknutím zobrazíte stav a předpověď počasí.

Chcete-li změnit mapu, kliknutím na zelené tlačítko se znaménkem +mapu přiblížíte, kliknutím na zelené tlačítko se znaménkem – mapu oddálíte a kliknutím na zelené šipky přejdete na sousední mapy.


METAR-TAF: